createdAt,value
2023-03-31T00:00:58.173Z,14.39
2023-03-31T00:03:26.663Z,14.40
2023-03-31T00:05:59.268Z,14.35
2023-03-31T00:08:30.587Z,14.34
2023-03-31T00:11:01.709Z,14.34
2023-03-31T00:13:30.867Z,14.25
2023-03-31T00:16:03.738Z,14.25
2023-03-31T00:18:32.351Z,14.33
2023-03-31T00:21:09.748Z,14.24
2023-03-31T00:23:37.810Z,14.20
2023-03-31T00:26:06.388Z,14.20
2023-03-31T00:28:34.701Z,14.27
2023-03-31T00:31:05.287Z,14.21
2023-03-31T00:33:33.253Z,14.19
2023-03-31T00:36:02.197Z,14.23
2023-03-31T00:38:30.954Z,14.24
2023-03-31T00:40:59.353Z,14.25
2023-03-31T00:43:33.855Z,14.23
2023-03-31T00:46:17.770Z,14.27
2023-03-31T00:48:51.940Z,14.28
2023-03-31T00:51:23.584Z,14.19
2023-03-31T00:53:57.420Z,14.23
2023-03-31T00:56:27.735Z,14.17
2023-03-31T00:59:01.529Z,14.22
2023-03-31T01:01:32.053Z,14.22
2023-03-31T01:04:00.262Z,14.23
2023-03-31T01:06:30.752Z,14.23
2023-03-31T01:08:59.374Z,14.27
2023-03-31T01:11:30.883Z,14.40
2023-03-31T01:13:59.777Z,14.35
2023-03-31T01:16:27.888Z,14.34
2023-03-31T01:18:57.461Z,14.40
2023-03-31T01:22:12.829Z,14.37
2023-03-31T01:25:33.856Z,14.32
2023-03-31T01:28:24.621Z,14.36
2023-03-31T01:31:59.034Z,14.29
2023-03-31T01:35:10.182Z,14.26
2023-03-31T01:38:22.153Z,14.07
2023-03-31T01:41:09.299Z,14.13
2023-03-31T01:43:46.971Z,14.10
2023-03-31T01:46:28.923Z,13.93
2023-03-31T01:49:09.098Z,13.94
2023-03-31T01:51:46.572Z,13.93
2023-03-31T01:54:22.000Z,13.93
2023-03-31T01:56:57.921Z,13.94
2023-03-31T01:59:32.608Z,13.99
2023-03-31T02:02:06.761Z,13.93
2023-03-31T02:04:39.875Z,14.08
2023-03-31T02:07:15.105Z,14.10
2023-03-31T02:09:48.608Z,14.13
2023-03-31T02:12:21.357Z,14.09
2023-03-31T02:14:53.633Z,14.13
2023-03-31T02:17:30.442Z,14.15
2023-03-31T02:20:05.604Z,14.14
2023-03-31T02:22:38.728Z,14.04
2023-03-31T02:25:12.197Z,14.08
2023-03-31T02:27:44.382Z,13.99
2023-03-31T02:30:14.115Z,14.06
2023-03-31T02:32:46.621Z,13.98
2023-03-31T02:35:20.096Z,13.98
2023-03-31T02:37:49.682Z,13.96
2023-03-31T02:40:27.536Z,13.99
2023-03-31T02:42:57.216Z,14.04
2023-03-31T02:45:45.456Z,13.98
2023-03-31T02:48:19.732Z,14.11
2023-03-31T02:51:27.397Z,13.99
2023-03-31T02:54:22.599Z,13.94
2023-03-31T02:57:15.992Z,13.92
2023-03-31T02:59:59.013Z,13.99
2023-03-31T03:02:38.623Z,13.95
2023-03-31T03:05:27.101Z,13.93
2023-03-31T03:08:35.605Z,13.87
2023-03-31T03:11:18.653Z,13.86
2023-03-31T03:13:52.018Z,13.87
2023-03-31T03:16:27.414Z,13.85
2023-03-31T03:19:00.440Z,13.81
2023-03-31T03:21:28.707Z,13.83
2023-03-31T03:23:57.160Z,13.89
2023-03-31T03:26:28.036Z,13.83
2023-03-31T03:28:57.279Z,13.79
2023-03-31T03:31:26.798Z,13.77
2023-03-31T03:33:55.832Z,13.72
2023-03-31T03:36:24.016Z,13.72
2023-03-31T03:38:52.070Z,13.71
2023-03-31T03:41:20.057Z,13.78
2023-03-31T03:43:48.114Z,13.75
2023-03-31T03:46:16.214Z,13.72
2023-03-31T03:48:46.228Z,13.62
2023-03-31T03:51:14.205Z,13.66
2023-03-31T03:53:42.211Z,13.67
2023-03-31T03:56:10.275Z,13.66
2023-03-31T03:58:38.267Z,13.67
2023-03-31T04:01:06.758Z,13.64
2023-03-31T04:03:34.829Z,13.70
2023-03-31T04:06:04.630Z,13.78
2023-03-31T04:08:32.849Z,13.71
2023-03-31T04:11:01.460Z,13.69
2023-03-31T04:13:29.645Z,13.64
2023-03-31T04:15:57.671Z,13.68
2023-03-31T04:18:25.799Z,13.73
2023-03-31T04:21:03.920Z,13.70
2023-03-31T04:23:34.677Z,13.72
2023-03-31T04:26:04.273Z,13.70
2023-03-31T04:28:34.903Z,13.67
2023-03-31T04:31:03.960Z,13.54
2023-03-31T04:33:34.040Z,13.49
2023-03-31T04:36:06.726Z,13.49
2023-03-31T04:38:36.192Z,13.52
2023-03-31T04:41:04.261Z,13.60
2023-03-31T04:43:32.207Z,13.50
2023-03-31T04:46:00.315Z,13.50
2023-03-31T04:48:28.399Z,13.55
2023-03-31T04:50:56.461Z,13.53
2023-03-31T04:53:24.839Z,13.56
2023-03-31T04:55:54.766Z,13.50
2023-03-31T04:58:22.907Z,13.48
2023-03-31T05:00:51.039Z,13.42
2023-03-31T05:03:19.503Z,13.34
2023-03-31T05:05:47.836Z,13.26
2023-03-31T05:08:16.124Z,13.19
2023-03-31T05:10:44.575Z,13.19
2023-03-31T05:13:13.959Z,13.18
2023-03-31T05:15:44.968Z,13.00
2023-03-31T05:18:13.074Z,13.00
2023-03-31T05:20:41.160Z,12.95
2023-03-31T05:23:09.264Z,12.88
2023-03-31T05:25:37.289Z,12.89
2023-03-31T05:28:05.986Z,12.87
2023-03-31T05:30:35.394Z,12.87
2023-03-31T05:33:03.469Z,13.00
2023-03-31T05:35:31.598Z,12.94
2023-03-31T05:37:59.669Z,12.89
2023-03-31T05:40:27.690Z,12.98
2023-03-31T05:42:55.716Z,12.90
2023-03-31T05:45:23.736Z,12.87
2023-03-31T05:47:53.086Z,12.97
2023-03-31T05:50:21.161Z,12.93
2023-03-31T05:52:49.167Z,13.00
2023-03-31T05:55:18.536Z,13.02
2023-03-31T05:57:46.533Z,13.07
2023-03-31T06:00:16.369Z,13.06
2023-03-31T06:02:44.456Z,13.05
2023-03-31T06:05:13.943Z,13.08
2023-03-31T06:07:41.927Z,13.11
2023-03-31T06:10:11.065Z,13.12
2023-03-31T06:12:39.195Z,13.08
2023-03-31T06:15:08.811Z,13.09
2023-03-31T06:17:38.460Z,13.01
2023-03-31T06:20:20.127Z,13.06
2023-03-31T06:22:53.807Z,13.08
2023-03-31T06:25:21.860Z,13.09
2023-03-31T06:27:49.924Z,13.16
2023-03-31T06:30:18.309Z,13.16
2023-03-31T06:32:46.358Z,13.23
2023-03-31T06:35:14.410Z,13.21
2023-03-31T06:37:42.474Z,13.18
2023-03-31T06:40:13.313Z,13.20
2023-03-31T06:42:41.370Z,13.18
2023-03-31T06:45:10.777Z,13.15
2023-03-31T06:47:41.339Z,13.14
2023-03-31T06:50:11.419Z,13.21
2023-03-31T06:52:40.810Z,13.16
2023-03-31T06:55:13.127Z,13.05
2023-03-31T06:57:41.323Z,13.07
2023-03-31T07:00:11.269Z,12.93
2023-03-31T07:02:39.644Z,13.07
2023-03-31T07:05:09.063Z,12.98
2023-03-31T07:07:37.360Z,12.96
2023-03-31T07:10:06.746Z,13.00
2023-03-31T07:12:36.386Z,13.12
2023-03-31T07:15:05.346Z,13.08
2023-03-31T07:17:33.837Z,13.05
2023-03-31T07:20:02.143Z,13.05
2023-03-31T07:22:30.542Z,13.07
2023-03-31T07:24:58.784Z,13.18
2023-03-31T07:27:28.953Z,13.14
2023-03-31T07:29:58.549Z,13.10
2023-03-31T07:32:28.877Z,13.13
2023-03-31T07:34:57.431Z,13.08
2023-03-31T07:37:25.786Z,13.25
2023-03-31T07:39:56.984Z,13.32
2023-03-31T07:42:25.245Z,13.33
2023-03-31T07:44:53.559Z,13.21
2023-03-31T07:47:24.161Z,13.26
2023-03-31T07:49:52.524Z,13.39
2023-03-31T07:52:23.565Z,13.37
2023-03-31T07:54:51.702Z,13.45
2023-03-31T07:57:20.435Z,13.49
2023-03-31T07:59:48.513Z,13.55
2023-03-31T08:02:18.799Z,13.54
2023-03-31T08:04:48.766Z,13.67
2023-03-31T08:07:17.859Z,13.75
2023-03-31T08:09:47.843Z,13.90
2023-03-31T08:12:16.120Z,14.01
2023-03-31T08:14:44.315Z,14.08
2023-03-31T08:17:12.617Z,14.10
2023-03-31T08:19:40.852Z,14.24
2023-03-31T08:22:10.217Z,14.36
2023-03-31T08:24:38.239Z,14.42
2023-03-31T08:27:11.949Z,14.45
2023-03-31T08:29:40.580Z,14.54
2023-03-31T08:32:08.749Z,14.68
2023-03-31T08:34:38.083Z,14.72
2023-03-31T08:37:06.198Z,14.82
2023-03-31T08:39:37.195Z,14.92
2023-03-31T08:42:15.407Z,15.00
2023-03-31T08:44:47.693Z,14.88
2023-03-31T08:47:20.116Z,15.00
2023-03-31T08:49:53.109Z,14.92
2023-03-31T08:52:28.017Z,15.10
2023-03-31T08:55:02.363Z,15.02
2023-03-31T08:57:40.940Z,15.05
2023-03-31T09:00:16.704Z,15.09
2023-03-31T09:02:53.077Z,15.21
2023-03-31T09:05:59.601Z,15.24
2023-03-31T09:08:40.562Z,15.17
2023-03-31T09:11:15.834Z,15.35
2023-03-31T09:14:14.522Z,15.43
2023-03-31T09:16:49.639Z,15.46
2023-03-31T09:19:26.061Z,15.47
2023-03-31T09:21:56.906Z,15.50
2023-03-31T09:24:32.646Z,15.67
2023-03-31T09:27:05.791Z,15.54
2023-03-31T09:29:43.381Z,15.60
2023-03-31T09:32:17.462Z,15.70
2023-03-31T09:34:48.070Z,15.85
2023-03-31T09:37:16.124Z,15.85
2023-03-31T09:39:44.502Z,16.00
2023-03-31T09:42:15.361Z,16.11
2023-03-31T09:44:47.386Z,15.94
2023-03-31T09:47:22.592Z,15.97
2023-03-31T09:49:53.735Z,15.96
2023-03-31T09:52:31.575Z,16.06
2023-03-31T09:55:02.559Z,15.68
2023-03-31T09:57:36.133Z,15.68
2023-03-31T10:00:16.069Z,15.83
2023-03-31T10:02:49.484Z,15.77
2023-03-31T10:05:29.522Z,15.78
2023-03-31T10:08:22.041Z,15.84
2023-03-31T10:10:52.847Z,15.94
2023-03-31T10:13:26.065Z,16.15
2023-03-31T10:15:56.003Z,16.34
2023-03-31T10:18:36.110Z,16.54
2023-03-31T10:21:07.993Z,16.45
2023-03-31T10:23:37.236Z,16.41
2023-03-31T10:26:06.578Z,16.26
2023-03-31T10:28:37.880Z,16.17
2023-03-31T10:31:06.291Z,16.00
2023-03-31T10:33:41.785Z,16.04
2023-03-31T10:36:26.994Z,16.20
2023-03-31T10:38:56.493Z,16.44
2023-03-31T10:41:29.046Z,16.39
2023-03-31T10:44:00.162Z,16.24
2023-03-31T10:46:43.964Z,16.15
2023-03-31T10:49:26.610Z,16.25
2023-03-31T10:51:57.529Z,15.98
2023-03-31T10:54:26.679Z,16.02
2023-03-31T10:56:58.941Z,15.96
2023-03-31T10:59:51.835Z,15.79
2023-03-31T11:02:53.513Z,15.57
2023-03-31T11:05:28.933Z,15.62
2023-03-31T11:08:13.946Z,15.64
2023-03-31T11:11:08.518Z,15.31
2023-03-31T11:13:45.286Z,15.09
2023-03-31T11:16:24.143Z,14.26
2023-03-31T11:19:16.608Z,13.32
2023-03-31T11:21:57.856Z,13.16
2023-03-31T11:24:51.774Z,12.70
2023-03-31T11:27:39.313Z,12.86
2023-03-31T11:30:18.286Z,12.72
2023-03-31T11:33:08.062Z,12.57
2023-03-31T11:35:54.347Z,12.63
2023-03-31T11:38:40.823Z,12.67
2023-03-31T11:41:12.225Z,12.54
2023-03-31T11:43:47.879Z,12.61
2023-03-31T11:46:22.156Z,12.58
2023-03-31T11:48:58.088Z,12.65
2023-03-31T11:51:30.540Z,12.69
2023-03-31T11:54:02.480Z,12.73
2023-03-31T11:56:37.355Z,12.88
2023-03-31T11:59:07.315Z,12.82
2023-03-31T12:01:43.906Z,13.23
2023-03-31T12:04:27.263Z,13.38
2023-03-31T12:07:03.930Z,13.52
2023-03-31T12:09:39.705Z,13.84
2023-03-31T12:12:14.061Z,13.93
2023-03-31T12:14:47.087Z,13.88
2023-03-31T12:17:18.895Z,14.18
2023-03-31T12:19:53.371Z,14.32
2023-03-31T12:22:27.069Z,14.44
2023-03-31T12:24:55.472Z,14.56
2023-03-31T12:27:28.591Z,14.71
2023-03-31T12:30:01.998Z,14.80
2023-03-31T12:32:34.608Z,14.93
2023-03-31T12:35:12.994Z,15.05
2023-03-31T12:38:20.424Z,15.14
2023-03-31T12:41:03.412Z,15.33
2023-03-31T12:44:11.460Z,15.50
2023-03-31T12:47:18.496Z,15.56
2023-03-31T12:50:03.709Z,15.51
2023-03-31T12:52:46.781Z,15.66
2023-03-31T12:55:35.589Z,15.66
2023-03-31T12:58:41.853Z,15.65
2023-03-31T13:01:21.520Z,15.51
2023-03-31T13:04:21.029Z,15.17
2023-03-31T13:06:55.741Z,14.83
2023-03-31T13:09:52.300Z,14.72
2023-03-31T13:12:25.455Z,14.68
2023-03-31T13:14:58.953Z,14.21
2023-03-31T13:17:34.459Z,13.92
2023-03-31T13:20:31.535Z,13.53
2023-03-31T13:23:06.754Z,13.39
2023-03-31T13:25:45.486Z,13.31
2023-03-31T13:28:40.036Z,13.29
2023-03-31T13:31:11.154Z,13.42
2023-03-31T13:33:48.390Z,13.35
2023-03-31T13:36:58.091Z,13.04
2023-03-31T13:39:53.594Z,12.92
2023-03-31T13:43:12.924Z,12.89
2023-03-31T13:46:01.415Z,12.75
2023-03-31T13:48:40.850Z,12.47
2023-03-31T13:51:30.026Z,12.36
2023-03-31T13:54:34.158Z,12.45
2023-03-31T13:58:05.438Z,12.47
2023-03-31T14:00:53.744Z,12.41
2023-03-31T14:03:39.303Z,12.56
2023-03-31T14:06:16.078Z,12.65
2023-03-31T14:08:52.362Z,12.87
2023-03-31T14:11:24.984Z,13.03
2023-03-31T14:14:07.488Z,13.25
2023-03-31T14:16:40.742Z,13.44
2023-03-31T14:19:47.988Z,13.55
2023-03-31T14:22:32.230Z,13.61
2023-03-31T14:25:15.615Z,13.85
2023-03-31T14:28:02.397Z,14.02
2023-03-31T14:30:46.771Z,14.06
2023-03-31T14:33:34.686Z,14.23
2023-03-31T14:36:15.825Z,14.28
2023-03-31T14:38:45.895Z,14.37
2023-03-31T14:41:21.295Z,14.49
2023-03-31T14:43:51.831Z,14.43
2023-03-31T14:46:24.643Z,14.54
2023-03-31T14:48:53.228Z,14.51
2023-03-31T14:51:28.926Z,14.70
2023-03-31T14:53:58.377Z,14.76
2023-03-31T14:56:34.755Z,14.73
2023-03-31T14:59:04.212Z,14.66
2023-03-31T15:01:37.756Z,14.62
2023-03-31T15:04:10.484Z,14.67
2023-03-31T15:06:39.981Z,14.56
2023-03-31T15:09:10.091Z,14.56
2023-03-31T15:11:38.166Z,14.58
2023-03-31T15:14:07.552Z,14.57
2023-03-31T15:16:43.445Z,14.60
2023-03-31T15:19:17.834Z,14.71
2023-03-31T15:21:47.745Z,14.62
2023-03-31T15:24:16.378Z,14.79
2023-03-31T15:26:50.467Z,14.68
2023-03-31T15:29:23.260Z,14.83
2023-03-31T15:31:53.035Z,14.56
2023-03-31T15:34:27.266Z,14.50
2023-03-31T15:36:57.286Z,14.63
2023-03-31T15:39:26.771Z,14.54
2023-03-31T15:41:56.504Z,14.46
2023-03-31T15:44:38.886Z,14.41
2023-03-31T15:47:17.551Z,14.34
2023-03-31T15:49:52.662Z,14.35
2023-03-31T15:52:30.219Z,14.28
2023-03-31T15:54:58.811Z,14.30
2023-03-31T15:57:35.431Z,14.35
2023-03-31T16:00:07.216Z,14.37
2023-03-31T16:02:47.173Z,14.30
2023-03-31T16:05:43.569Z,14.26
2023-03-31T16:08:20.291Z,14.26
2023-03-31T16:10:51.436Z,14.13
2023-03-31T16:13:23.369Z,14.03
2023-03-31T16:15:55.117Z,13.84
2023-03-31T16:18:34.163Z,13.96
2023-03-31T16:21:06.137Z,13.87
2023-03-31T16:23:38.687Z,13.85
2023-03-31T16:26:07.905Z,13.64
2023-03-31T16:28:38.698Z,13.55
2023-03-31T16:31:27.167Z,13.61
2023-03-31T16:33:58.195Z,13.42
2023-03-31T16:36:27.192Z,13.57
2023-03-31T16:38:55.793Z,13.37
2023-03-31T16:41:24.547Z,13.42
2023-03-31T16:43:54.216Z,13.50
2023-03-31T16:46:23.663Z,13.55
2023-03-31T16:48:52.784Z,13.66
2023-03-31T16:51:23.281Z,13.64
2023-03-31T16:53:51.524Z,13.69
2023-03-31T16:56:20.977Z,13.66
2023-03-31T16:58:49.114Z,13.67
2023-03-31T17:01:17.413Z,13.45
2023-03-31T17:03:45.685Z,13.46
2023-03-31T17:06:15.761Z,13.52
2023-03-31T17:08:45.712Z,13.51
2023-03-31T17:11:15.911Z,13.43
2023-03-31T17:13:44.658Z,13.36
2023-03-31T17:16:22.040Z,13.27
2023-03-31T17:18:55.461Z,13.30
2023-03-31T17:21:23.722Z,13.23
2023-03-31T17:23:53.210Z,13.23
2023-03-31T17:26:21.953Z,13.25
2023-03-31T17:28:50.549Z,13.14
2023-03-31T17:31:21.088Z,13.01
2023-03-31T17:33:49.731Z,13.11
2023-03-31T17:36:18.353Z,13.10
2023-03-31T17:38:46.426Z,13.08
2023-03-31T17:41:17.657Z,13.08
2023-03-31T17:43:47.200Z,13.13
2023-03-31T17:46:15.480Z,13.12
2023-03-31T17:48:45.558Z,13.08
2023-03-31T17:51:17.135Z,12.93
2023-03-31T17:53:46.936Z,12.87
2023-03-31T17:56:18.611Z,12.92
2023-03-31T17:58:47.403Z,12.94
2023-03-31T18:01:16.333Z,12.86
2023-03-31T18:03:46.146Z,12.86
2023-03-31T18:06:15.704Z,12.81
2023-03-31T18:08:44.382Z,12.83
2023-03-31T18:11:13.347Z,12.83
2023-03-31T18:13:42.706Z,12.87
2023-03-31T18:16:12.893Z,12.76
2023-03-31T18:18:42.371Z,12.75
2023-03-31T18:21:13.133Z,12.76
2023-03-31T18:23:42.132Z,12.73
2023-03-31T18:26:12.158Z,12.72
2023-03-31T18:28:41.724Z,12.69
2023-03-31T18:31:10.858Z,12.68
2023-03-31T18:33:39.049Z,12.67
2023-03-31T18:36:08.488Z,12.64
2023-03-31T18:38:36.923Z,12.59
2023-03-31T18:41:06.084Z,12.53
2023-03-31T18:43:34.581Z,12.51
2023-03-31T18:46:04.356Z,12.51
2023-03-31T18:48:32.872Z,12.48
2023-03-31T18:51:00.901Z,12.43
2023-03-31T18:53:30.040Z,12.42
2023-03-31T18:55:59.926Z,12.36
2023-03-31T18:58:33.466Z,12.45
2023-03-31T19:01:03.197Z,12.41
2023-03-31T19:03:32.520Z,12.45
2023-03-31T19:06:06.680Z,12.49
2023-03-31T19:08:34.689Z,12.48
2023-03-31T19:11:10.051Z,12.43
2023-03-31T19:13:39.946Z,12.38
2023-03-31T19:16:10.043Z,12.32
2023-03-31T19:18:38.538Z,12.10
2023-03-31T19:21:07.050Z,12.09
2023-03-31T19:23:38.874Z,12.16
2023-03-31T19:26:07.114Z,12.26
2023-03-31T19:28:35.177Z,12.27
2023-03-31T19:31:06.131Z,12.29
2023-03-31T19:33:35.537Z,12.18
2023-03-31T19:36:03.835Z,12.12
2023-03-31T19:38:36.568Z,12.12
2023-03-31T19:41:05.950Z,12.06
2023-03-31T19:43:34.777Z,12.01
2023-03-31T19:46:03.400Z,12.06
2023-03-31T19:48:33.863Z,12.07
2023-03-31T19:51:05.755Z,12.04
2023-03-31T19:53:34.336Z,12.17
2023-03-31T19:56:05.328Z,12.18
2023-03-31T19:58:35.855Z,12.24
2023-03-31T20:01:06.457Z,12.17
2023-03-31T20:03:35.886Z,12.37
2023-03-31T20:06:07.813Z,12.46
2023-03-31T20:08:36.520Z,12.40
2023-03-31T20:11:08.142Z,12.38
2023-03-31T20:13:36.730Z,12.34
2023-03-31T20:16:07.944Z,12.35
2023-03-31T20:18:38.927Z,12.32
2023-03-31T20:21:11.364Z,12.21
2023-03-31T20:23:41.688Z,12.14
2023-03-31T20:26:12.706Z,12.23
2023-03-31T20:28:41.755Z,12.22
2023-03-31T20:31:11.304Z,12.24
2023-03-31T20:33:39.533Z,12.29
2023-03-31T20:36:11.305Z,12.35
2023-03-31T20:38:40.637Z,12.21
2023-03-31T20:41:10.599Z,12.32
2023-03-31T20:43:39.922Z,12.31
2023-03-31T20:46:10.593Z,12.23
2023-03-31T20:48:41.393Z,12.15
2023-03-31T20:51:12.904Z,12.35
2023-03-31T20:53:43.763Z,12.17
2023-03-31T20:56:12.767Z,12.06
2023-03-31T20:58:43.925Z,12.17
2023-03-31T21:01:13.527Z,12.31
2023-03-31T21:03:42.130Z,12.29
2023-03-31T21:06:14.392Z,12.29
2023-03-31T21:08:45.394Z,12.26
2023-03-31T21:11:14.496Z,12.23
2023-03-31T21:13:44.711Z,12.13
2023-03-31T21:16:13.478Z,12.21
2023-03-31T21:18:41.622Z,12.23
2023-03-31T21:21:14.379Z,12.32
2023-03-31T21:23:42.945Z,12.22
2023-03-31T21:26:14.892Z,12.23
2023-03-31T21:28:43.582Z,12.29
2023-03-31T21:31:14.124Z,12.41
2023-03-31T21:33:44.558Z,12.32
2023-03-31T21:36:17.717Z,12.26
2023-03-31T21:38:46.064Z,12.34
2023-03-31T21:41:17.486Z,12.21
2023-03-31T21:43:46.203Z,12.09
2023-03-31T21:46:17.457Z,12.01
2023-03-31T21:48:46.144Z,11.87
2023-03-31T21:51:15.870Z,12.13
2023-03-31T21:53:43.994Z,11.95
2023-03-31T21:56:12.207Z,11.97
2023-03-31T21:58:40.370Z,12.09
2023-03-31T22:01:08.796Z,12.06
2023-03-31T22:03:38.464Z,11.97
2023-03-31T22:06:08.290Z,11.92
2023-03-31T22:08:39.728Z,12.03
2023-03-31T22:11:10.111Z,12.12
2023-03-31T22:13:38.909Z,12.11
2023-03-31T22:16:16.219Z,12.02
2023-03-31T22:18:44.525Z,11.96
2023-03-31T22:21:17.999Z,12.06
2023-03-31T22:23:47.604Z,12.15
2023-03-31T22:26:15.671Z,12.07
2023-03-31T22:28:43.819Z,12.03
2023-03-31T22:31:11.810Z,12.09
2023-03-31T22:33:39.957Z,12.06
2023-03-31T22:36:09.071Z,12.07
2023-03-31T22:38:37.118Z,11.96
2023-03-31T22:41:07.318Z,12.10
2023-03-31T22:43:35.524Z,11.96
2023-03-31T22:46:05.317Z,12.05
2023-03-31T22:48:33.471Z,11.92
2023-03-31T22:51:05.776Z,11.87
2023-03-31T22:53:35.150Z,11.85
2023-03-31T22:56:11.426Z,11.93
2023-03-31T22:58:39.754Z,11.88
2023-03-31T23:01:09.788Z,11.94
2023-03-31T23:03:38.265Z,11.84
2023-03-31T23:06:07.236Z,11.75
2023-03-31T23:08:36.918Z,11.77
2023-03-31T23:11:08.684Z,11.76
2023-03-31T23:13:36.939Z,11.75
2023-03-31T23:16:07.425Z,11.67
2023-03-31T23:18:36.327Z,11.87
2023-03-31T23:21:06.565Z,11.92
2023-03-31T23:23:34.589Z,11.76
2023-03-31T23:26:02.802Z,11.84
2023-03-31T23:28:32.476Z,11.95
2023-03-31T23:31:00.717Z,11.81
2023-03-31T23:33:30.089Z,11.80
2023-03-31T23:36:01.338Z,11.73
2023-03-31T23:38:30.106Z,11.69
2023-03-31T23:40:58.629Z,11.81
2023-03-31T23:43:27.745Z,11.74
2023-03-31T23:45:57.446Z,11.82
2023-03-31T23:48:25.865Z,11.84
2023-03-31T23:50:53.885Z,11.79
2023-03-31T23:53:21.974Z,11.74
2023-03-31T23:55:57.851Z,11.75
2023-03-31T23:58:26.782Z,11.70
